sensor_id;sensor_type;location;lat;lon;timestamp;pressure;altitude;pressure_sealevel;temperature;humidity
23261;BME280;11799;47.740;-3.390;2022-12-18T00:00:43;101793.44;;;-1.02;78.00
23261;BME280;11799;47.740;-3.390;2022-12-18T00:03:09;101787.34;;;-0.97;78.12
23261;BME280;11799;47.740;-3.390;2022-12-18T00:05:35;101785.50;;;-0.91;78.32
23261;BME280;11799;47.740;-3.390;2022-12-18T00:08:01;101795.94;;;-0.94;78.00
23261;BME280;11799;47.740;-3.390;2022-12-18T00:10:28;101791.63;;;-0.95;77.89
23261;BME280;11799;47.740;-3.390;2022-12-18T00:12:54;101794.94;;;-0.85;78.10
23261;BME280;11799;47.740;-3.390;2022-12-18T00:15:20;101787.97;;;-0.82;77.90
23261;BME280;11799;47.740;-3.390;2022-12-18T00:17:45;101794.00;;;-0.80;78.24
23261;BME280;11799;47.740;-3.390;2022-12-18T00:20:11;101788.72;;;-0.75;78.23
23261;BME280;11799;47.740;-3.390;2022-12-18T00:22:37;101775.03;;;-0.83;78.07
23261;BME280;11799;47.740;-3.390;2022-12-18T00:25:03;101783.63;;;-0.80;78.04
23261;BME280;11799;47.740;-3.390;2022-12-18T00:27:29;101772.38;;;-0.80;78.11
23261;BME280;11799;47.740;-3.390;2022-12-18T00:29:54;101783.63;;;-0.81;78.03
23261;BME280;11799;47.740;-3.390;2022-12-18T00:32:20;101774.09;;;-0.79;77.99
23261;BME280;11799;47.740;-3.390;2022-12-18T00:34:45;101768.06;;;-0.80;77.96
23261;BME280;11799;47.740;-3.390;2022-12-18T00:37:11;101768.97;;;-0.82;77.83
23261;BME280;11799;47.740;-3.390;2022-12-18T00:39:37;101767.97;;;-0.75;77.73
23261;BME280;11799;47.740;-3.390;2022-12-18T00:42:02;101765.34;;;-0.72;78.11
23261;BME280;11799;47.740;-3.390;2022-12-18T00:44:47;101774.91;;;-0.76;77.83
23261;BME280;11799;47.740;-3.390;2022-12-18T00:47:12;101766.19;;;-0.72;78.07
23261;BME280;11799;47.740;-3.390;2022-12-18T00:49:38;101763.69;;;-0.76;77.87
23261;BME280;11799;47.740;-3.390;2022-12-18T00:52:03;101769.59;;;-0.68;77.84
23261;BME280;11799;47.740;-3.390;2022-12-18T00:54:30;101776.50;;;-0.67;78.05
23261;BME280;11799;47.740;-3.390;2022-12-18T00:56:55;101771.47;;;-0.78;77.77
23261;BME280;11799;47.740;-3.390;2022-12-18T00:59:21;101774.00;;;-0.73;77.76
23261;BME280;11799;47.740;-3.390;2022-12-18T01:01:47;101761.88;;;-0.73;78.18
23261;BME280;11799;47.740;-3.390;2022-12-18T01:04:12;101764.47;;;-0.71;78.13
23261;BME280;11799;47.740;-3.390;2022-12-18T01:06:38;101756.69;;;-0.71;78.08
23261;BME280;11799;47.740;-3.390;2022-12-18T01:09:04;101759.31;;;-0.74;78.52
23261;BME280;11799;47.740;-3.390;2022-12-18T01:11:30;101757.59;;;-0.74;78.37
23261;BME280;11799;47.740;-3.390;2022-12-18T01:13:56;101759.28;;;-0.71;78.48
23261;BME280;11799;47.740;-3.390;2022-12-18T01:16:22;101748.09;;;-0.75;78.26
23261;BME280;11799;47.740;-3.390;2022-12-18T01:18:51;101746.44;;;-0.79;78.41
23261;BME280;11799;47.740;-3.390;2022-12-18T01:21:18;101751.56;;;-0.76;77.91
23261;BME280;11799;47.740;-3.390;2022-12-18T01:23:44;101738.69;;;-0.82;78.57
23261;BME280;11799;47.740;-3.390;2022-12-18T01:26:12;101751.59;;;-0.77;78.56
23261;BME280;11799;47.740;-3.390;2022-12-18T01:28:38;101750.63;;;-0.72;78.68
23261;BME280;11799;47.740;-3.390;2022-12-18T01:31:22;101740.22;;;-0.69;78.62
23261;BME280;11799;47.740;-3.390;2022-12-18T01:33:48;101746.22;;;-0.67;78.49
23261;BME280;11799;47.740;-3.390;2022-12-18T01:36:23;101737.63;;;-0.69;78.58
23261;BME280;11799;47.740;-3.390;2022-12-18T01:38:50;101732.41;;;-0.67;78.60
23261;BME280;11799;47.740;-3.390;2022-12-18T01:41:21;101731.50;;;-0.64;78.54
23261;BME280;11799;47.740;-3.390;2022-12-18T01:43:55;101730.56;;;-0.60;79.06
23261;BME280;11799;47.740;-3.390;2022-12-18T01:46:23;101727.09;;;-0.61;78.86
23261;BME280;11799;47.740;-3.390;2022-12-18T01:48:53;101724.47;;;-0.58;78.84
23261;BME280;11799;47.740;-3.390;2022-12-18T01:51:20;101721.00;;;-0.58;78.67
23261;BME280;11799;47.740;-3.390;2022-12-18T01:53:46;101715.03;;;-0.62;78.71
23261;BME280;11799;47.740;-3.390;2022-12-18T01:56:18;101719.22;;;-0.56;78.88
23261;BME280;11799;47.740;-3.390;2022-12-18T01:58:54;101718.34;;;-0.57;78.77
23261;BME280;11799;47.740;-3.390;2022-12-18T02:01:23;101708.72;;;-0.50;78.95
23261;BME280;11799;47.740;-3.390;2022-12-18T02:03:50;101713.06;;;-0.51;78.36
23261;BME280;11799;47.740;-3.390;2022-12-18T02:09:19;101702.69;;;-0.51;78.44
23261;BME280;11799;47.740;-3.390;2022-12-18T02:25:43;101698.16;;;-0.40;78.80
23261;BME280;11799;47.740;-3.390;2022-12-18T02:27:49;101694.69;;;-0.39;78.61
23261;BME280;11799;47.740;-3.390;2022-12-18T02:30:17;101705.13;;;-0.42;78.73
23261;BME280;11799;47.740;-3.390;2022-12-18T02:32:47;101708.50;;;-0.38;78.68
23261;BME280;11799;47.740;-3.390;2022-12-18T02:35:17;101694.66;;;-0.37;78.32
23261;BME280;11799;47.740;-3.390;2022-12-18T02:37:47;101692.06;;;-0.37;78.60
23261;BME280;11799;47.740;-3.390;2022-12-18T02:40:14;101687.63;;;-0.32;78.37
23261;BME280;11799;47.740;-3.390;2022-12-18T02:42:42;101687.63;;;-0.32;78.44
23261;BME280;11799;47.740;-3.390;2022-12-18T02:45:10;101692.81;;;-0.32;78.64
23261;BME280;11799;47.740;-3.390;2022-12-18T02:47:39;101702.28;;;-0.29;78.69
23261;BME280;11799;47.740;-3.390;2022-12-18T02:53:07;101707.44;;;-0.26;78.80
23261;BME280;11799;47.740;-3.390;2022-12-18T03:01:59;101710.75;;;-0.18;78.85
23261;BME280;11799;47.740;-3.390;2022-12-18T03:04:40;101701.22;;;-0.18;78.96
23261;BME280;11799;47.740;-3.390;2022-12-18T03:07:15;101702.88;;;-0.15;79.22
23261;BME280;11799;47.740;-3.390;2022-12-18T03:09:47;101692.53;;;-0.17;78.94
23261;BME280;11799;47.740;-3.390;2022-12-18T03:12:35;101699.38;;;-0.13;79.18
23261;BME280;11799;47.740;-3.390;2022-12-18T03:15:10;101695.88;;;-0.10;79.09
23261;BME280;11799;47.740;-3.390;2022-12-18T03:17:42;101711.44;;;-0.10;79.24
23261;BME280;11799;47.740;-3.390;2022-12-18T03:20:14;101703.72;;;-0.13;78.95
23261;BME280;11799;47.740;-3.390;2022-12-18T03:22:40;101709.78;;;-0.14;78.57
23261;BME280;11799;47.740;-3.390;2022-12-18T03:25:12;101710.63;;;-0.12;79.05
23261;BME280;11799;47.740;-3.390;2022-12-18T03:27:46;101716.69;;;-0.13;79.02
23261;BME280;11799;47.740;-3.390;2022-12-18T03:30:15;101708.88;;;-0.12;79.03
23261;BME280;11799;47.740;-3.390;2022-12-18T03:33:05;101713.22;;;-0.12;78.75
23261;BME280;11799;47.740;-3.390;2022-12-18T03:35:37;101711.38;;;-0.06;79.25
23261;BME280;11799;47.740;-3.390;2022-12-18T03:38:04;101706.22;;;-0.09;79.17
23261;BME280;11799;47.740;-3.390;2022-12-18T03:40:45;101702.69;;;-0.05;79.27
23261;BME280;11799;47.740;-3.390;2022-12-18T03:43:31;101703.47;;;-0.01;79.27
23261;BME280;11799;47.740;-3.390;2022-12-18T03:46:28;101699.06;;;0.01;79.33
23261;BME280;11799;47.740;-3.390;2022-12-18T03:49:08;101694.84;;;-0.02;79.56
23261;BME280;11799;47.740;-3.390;2022-12-18T03:54:26;101710.19;;;0.08;79.60
23261;BME280;11799;47.740;-3.390;2022-12-18T03:57:08;101705.84;;;0.10;79.92
23261;BME280;11799;47.740;-3.390;2022-12-18T03:59:37;101699.75;;;0.11;80.02
23261;BME280;11799;47.740;-3.390;2022-12-18T04:02:04;101685.78;;;0.16;80.27
23261;BME280;11799;47.740;-3.390;2022-12-18T04:04:33;101685.78;;;0.16;80.22
23261;BME280;11799;47.740;-3.390;2022-12-18T04:07:02;101676.22;;;0.18;80.39
23261;BME280;11799;47.740;-3.390;2022-12-18T04:09:30;101679.66;;;0.19;80.89
23261;BME280;11799;47.740;-3.390;2022-12-18T04:11:57;101680.47;;;0.22;81.01
23261;BME280;11799;47.740;-3.390;2022-12-18T04:14:23;101678.66;;;0.26;81.21
23261;BME280;11799;47.740;-3.390;2022-12-18T04:16:52;101681.19;;;0.29;81.22
23261;BME280;11799;47.740;-3.390;2022-12-18T04:19:23;101669.88;;;0.31;81.68
23261;BME280;11799;47.740;-3.390;2022-12-18T04:21:50;101669.00;;;0.32;81.98
23261;BME280;11799;47.740;-3.390;2022-12-18T04:24:16;101668.94;;;0.34;82.22
23261;BME280;11799;47.740;-3.390;2022-12-18T04:26:51;101663.78;;;0.32;82.58
23261;BME280;11799;47.740;-3.390;2022-12-18T04:29:22;101659.41;;;0.35;82.43
23261;BME280;11799;47.740;-3.390;2022-12-18T04:31:48;101657.63;;;0.37;82.87
23261;BME280;11799;47.740;-3.390;2022-12-18T04:34:14;101660.16;;;0.40;82.88
23261;BME280;11799;47.740;-3.390;2022-12-18T04:36:46;101644.56;;;0.40;82.96
23261;BME280;11799;47.740;-3.390;2022-12-18T04:39:13;101650.56;;;0.43;83.43
23261;BME280;11799;47.740;-3.390;2022-12-18T04:41:40;101644.44;;;0.46;83.32
23261;BME280;11799;47.740;-3.390;2022-12-18T04:44:07;101648.75;;;0.47;83.54
23261;BME280;11799;47.740;-3.390;2022-12-18T04:46:33;101638.31;;;0.48;83.60
23261;BME280;11799;47.740;-3.390;2022-12-18T04:48:58;101631.34;;;0.50;83.79
23261;BME280;11799;47.740;-3.390;2022-12-18T04:51:24;101627.03;;;0.49;84.09
23261;BME280;11799;47.740;-3.390;2022-12-18T04:53:49;101631.34;;;0.50;84.25
23261;BME280;11799;47.740;-3.390;2022-12-18T04:56:16;101626.06;;;0.53;84.40
23261;BME280;11799;47.740;-3.390;2022-12-18T04:58:43;101626.78;;;0.58;84.83
23261;BME280;11799;47.740;-3.390;2022-12-18T05:01:09;101623.28;;;0.59;84.49
23261;BME280;11799;47.740;-3.390;2022-12-18T05:03:36;101618.06;;;0.61;84.99
23261;BME280;11799;47.740;-3.390;2022-12-18T05:06:02;101621.44;;;0.64;85.19
23261;BME280;11799;47.740;-3.390;2022-12-18T05:08:28;101611.00;;;0.66;85.36
23261;BME280;11799;47.740;-3.390;2022-12-18T05:11:01;101605.75;;;0.69;85.46
23261;BME280;11799;47.740;-3.390;2022-12-18T05:13:28;101604.88;;;0.69;85.16
23261;BME280;11799;47.740;-3.390;2022-12-18T05:15:54;101600.56;;;0.68;85.50
23261;BME280;11799;47.740;-3.390;2022-12-18T05:18:21;101601.34;;;0.71;85.86
23261;BME280;11799;47.740;-3.390;2022-12-18T05:20:47;101594.38;;;0.73;85.69
23261;BME280;11799;47.740;-3.390;2022-12-18T05:23:12;101583.19;;;0.70;85.89
23261;BME280;11799;47.740;-3.390;2022-12-18T05:25:38;101579.50;;;0.78;86.22
23261;BME280;11799;47.740;-3.390;2022-12-18T05:28:04;101581.25;;;0.78;86.25
23261;BME280;11799;47.740;-3.390;2022-12-18T05:30:29;101580.25;;;0.83;86.52
23261;BME280;11799;47.740;-3.390;2022-12-18T05:32:55;101585.44;;;0.83;86.29
23261;BME280;11799;47.740;-3.390;2022-12-18T05:35:21;101573.22;;;0.87;86.36
23261;BME280;11799;47.740;-3.390;2022-12-18T05:37:46;101584.50;;;0.87;86.97
23261;BME280;11799;47.740;-3.390;2022-12-18T05:40:12;101586.13;;;0.91;87.01
23261;BME280;11799;47.740;-3.390;2022-12-18T05:42:38;101577.38;;;0.94;87.05
23261;BME280;11799;47.740;-3.390;2022-12-18T05:45:05;101583.41;;;0.96;87.87
23261;BME280;11799;47.740;-3.390;2022-12-18T05:47:30;101579.88;;;0.98;88.22
23261;BME280;11799;47.740;-3.390;2022-12-18T05:49:56;101575.47;;;1.01;88.07
23261;BME280;11799;47.740;-3.390;2022-12-18T05:52:22;101581.44;;;1.04;88.25
23261;BME280;11799;47.740;-3.390;2022-12-18T05:54:47;101581.38;;;1.07;88.15
23261;BME280;11799;47.740;-3.390;2022-12-18T05:57:13;101565.69;;;1.10;88.21
23261;BME280;11799;47.740;-3.390;2022-12-18T05:59:38;101571.66;;;1.14;88.65
23261;BME280;11799;47.740;-3.390;2022-12-18T06:02:04;101568.94;;;1.17;89.04
23261;BME280;11799;47.740;-3.390;2022-12-18T06:04:29;101563.66;;;1.20;89.34
23261;BME280;11799;47.740;-3.390;2022-12-18T06:06:55;101558.50;;;1.18;89.50
23261;BME280;11799;47.740;-3.390;2022-12-18T06:09:21;101556.53;;;1.26;89.58
23261;BME280;11799;47.740;-3.390;2022-12-18T06:11:46;101553.00;;;1.29;89.10
23261;BME280;11799;47.740;-3.390;2022-12-18T06:14:12;101552.88;;;1.33;89.73
23261;BME280;11799;47.740;-3.390;2022-12-18T06:16:38;101553.69;;;1.36;89.61
23261;BME280;11799;47.740;-3.390;2022-12-18T06:19:05;101550.03;;;1.43;90.03
23261;BME280;11799;47.740;-3.390;2022-12-18T06:21:31;101541.22;;;1.47;90.31
23261;BME280;11799;47.740;-3.390;2022-12-18T06:23:57;101543.63;;;1.54;91.13
23261;BME280;11799;47.740;-3.390;2022-12-18T06:26:23;101539.19;;;1.58;91.01
23261;BME280;11799;47.740;-3.390;2022-12-18T06:28:49;101539.00;;;1.64;91.41
23261;BME280;11799;47.740;-3.390;2022-12-18T06:31:15;101530.84;;;1.75;91.65
23261;BME280;11799;47.740;-3.390;2022-12-18T06:33:40;101541.97;;;1.80;91.97
23261;BME280;11799;47.740;-3.390;2022-12-18T06:36:13;101537.38;;;1.88;92.65
23261;BME280;11799;47.740;-3.390;2022-12-18T06:38:42;101540.84;;;1.88;92.59
23261;BME280;11799;47.740;-3.390;2022-12-18T06:43:34;101528.16;;;2.06;92.85
23261;BME280;11799;47.740;-3.390;2022-12-18T06:46:00;101523.81;;;2.06;92.78
23261;BME280;11799;47.740;-3.390;2022-12-18T06:48:26;101524.28;;;2.19;93.42
23261;BME280;11799;47.740;-3.390;2022-12-18T06:50:52;101526.78;;;2.22;93.31
23261;BME280;11799;47.740;-3.390;2022-12-18T06:53:17;101528.88;;;2.37;94.22
23261;BME280;11799;47.740;-3.390;2022-12-18T06:55:43;101525.25;;;2.41;94.13
23261;BME280;11799;47.740;-3.390;2022-12-18T06:58:08;101524.91;;;2.52;94.22
23261;BME280;11799;47.740;-3.390;2022-12-18T07:00:34;101521.84;;;2.65;94.55
23261;BME280;11799;47.740;-3.390;2022-12-18T07:03:00;101529.78;;;2.87;95.50
23261;BME280;11799;47.740;-3.390;2022-12-18T07:05:25;101531.22;;;2.96;95.92
23261;BME280;11799;47.740;-3.390;2022-12-18T07:07:51;101525.03;;;2.98;95.81
23261;BME280;11799;47.740;-3.390;2022-12-18T07:10:16;101521.34;;;3.04;96.55
23261;BME280;11799;47.740;-3.390;2022-12-18T07:12:43;101513.16;;;3.15;96.31
23261;BME280;11799;47.740;-3.390;2022-12-18T07:15:08;101515.53;;;3.21;96.51
23261;BME280;11799;47.740;-3.390;2022-12-18T07:17:34;101514.28;;;3.31;96.46
23261;BME280;11799;47.740;-3.390;2022-12-18T07:20:00;101524.28;;;3.43;96.96
23261;BME280;11799;47.740;-3.390;2022-12-18T07:22:26;101521.38;;;3.51;97.35
23261;BME280;11799;47.740;-3.390;2022-12-18T07:24:51;101517.41;;;3.64;97.52
23261;BME280;11799;47.740;-3.390;2022-12-18T07:27:17;101513.13;;;3.61;97.40
23261;BME280;11799;47.740;-3.390;2022-12-18T07:29:43;101504.22;;;3.67;97.46
23261;BME280;11799;47.740;-3.390;2022-12-18T07:32:08;101501.44;;;3.72;97.26
23261;BME280;11799;47.740;-3.390;2022-12-18T07:34:34;101497.00;;;3.74;97.61
23261;BME280;11799;47.740;-3.390;2022-12-18T07:36:59;101488.13;;;3.78;97.86
23261;BME280;11799;47.740;-3.390;2022-12-18T07:39:25;101491.06;;;3.92;97.70
23261;BME280;11799;47.740;-3.390;2022-12-18T07:41:51;101503.09;;;3.96;97.82
23261;BME280;11799;47.740;-3.390;2022-12-18T07:44:49;101500.47;;;3.96;97.95
23261;BME280;11799;47.740;-3.390;2022-12-18T07:47:14;101493.63;;;3.93;97.75
23261;BME280;11799;47.740;-3.390;2022-12-18T07:49:40;101503.72;;;4.03;98.13
23261;BME280;11799;47.740;-3.390;2022-12-18T07:52:06;101507.69;;;4.11;98.13
23261;BME280;11799;47.740;-3.390;2022-12-18T07:54:31;101508.34;;;4.16;98.10
23261;BME280;11799;47.740;-3.390;2022-12-18T07:56:57;101504.78;;;4.19;98.21
23261;BME280;11799;47.740;-3.390;2022-12-18T07:59:22;101508.97;;;4.23;98.27
23261;BME280;11799;47.740;-3.390;2022-12-18T08:01:48;101509.81;;;4.23;98.38
23261;BME280;11799;47.740;-3.390;2022-12-18T08:04:13;101510.34;;;4.31;98.26
23261;BME280;11799;47.740;-3.390;2022-12-18T08:06:39;101507.56;;;4.36;98.52
23261;BME280;11799;47.740;-3.390;2022-12-18T08:09:05;101508.09;;;4.44;98.93
23261;BME280;11799;47.740;-3.390;2022-12-18T08:11:30;101505.28;;;4.49;98.41
23261;BME280;11799;47.740;-3.390;2022-12-18T08:13:57;101504.19;;;4.54;98.87
23261;BME280;11799;47.740;-3.390;2022-12-18T08:16:22;101490.78;;;4.62;98.79
23261;BME280;11799;47.740;-3.390;2022-12-18T08:18:48;101493.13;;;4.68;98.76
23261;BME280;11799;47.740;-3.390;2022-12-18T08:21:19;101486.84;;;4.72;99.08
23261;BME280;11799;47.740;-3.390;2022-12-18T08:23:46;101482.25;;;4.77;98.97
23261;BME280;11799;47.740;-3.390;2022-12-18T08:26:13;101484.59;;;4.83;99.26
23261;BME280;11799;47.740;-3.390;2022-12-18T08:28:39;101480.28;;;4.82;99.07
23261;BME280;11799;47.740;-3.390;2022-12-18T08:31:05;101488.47;;;4.95;99.24
23261;BME280;11799;47.740;-3.390;2022-12-18T08:33:32;101484.72;;;5.01;99.58
23261;BME280;11799;47.740;-3.390;2022-12-18T08:35:59;101482.09;;;5.01;99.13
23261;BME280;11799;47.740;-3.390;2022-12-18T08:38:25;101487.34;;;5.01;99.46
23261;BME280;11799;47.740;-3.390;2022-12-18T08:41:01;101483.53;;;5.08;99.79
23261;BME280;11799;47.740;-3.390;2022-12-18T08:43:27;101499.19;;;5.09;99.87
23261;BME280;11799;47.740;-3.390;2022-12-18T08:46:11;101477.84;;;5.18;99.93
23261;BME280;11799;47.740;-3.390;2022-12-18T08:48:37;101476.81;;;5.21;99.73
23261;BME280;11799;47.740;-3.390;2022-12-18T08:51:03;101473.50;;;5.17;99.83
23261;BME280;11799;47.740;-3.390;2022-12-18T08:53:29;101478.94;;;5.31;99.89
23261;BME280;11799;47.740;-3.390;2022-12-18T08:55:56;101470.25;;;5.31;100.00
23261;BME280;11799;47.740;-3.390;2022-12-18T08:58:21;101463.88;;;5.37;100.00
23261;BME280;11799;47.740;-3.390;2022-12-18T09:00:47;101454.53;;;5.50;100.00
23261;BME280;11799;47.740;-3.390;2022-12-18T09:03:14;101446.31;;;5.76;100.00
23261;BME280;11799;47.740;-3.390;2022-12-18T09:05:40;101446.50;;;5.90;100.00
23261;BME280;11799;47.740;-3.390;2022-12-18T09:08:06;101436.72;;;5.94;100.00
23261;BME280;11799;47.740;-3.390;2022-12-18T09:10:32;101439.81;;;6.02;100.00
23261;BME280;11799;47.740;-3.390;2022-12-18T09:12:58;101434.41;;;6.05;100.00
23261;BME280;11799;47.740;-3.390;2022-12-18T09:15:23;101431.94;;;6.02;100.00
23261;BME280;11799;47.740;-3.390;2022-12-18T09:17:49;101428.47;;;6.02;100.00
23261;BME280;11799;47.740;-3.390;2022-12-18T09:20:16;101426.09;;;6.14;100.00
23261;BME280;11799;47.740;-3.390;2022-12-18T09:22:41;101429.66;;;6.13;100.00
23261;BME280;11799;47.740;-3.390;2022-12-18T09:25:07;101432.41;;;6.10;100.00
23261;BME280;11799;47.740;-3.390;2022-12-18T09:27:34;101420.47;;;6.22;100.00
23261;BME280;11799;47.740;-3.390;2022-12-18T09:29:59;101426.97;;;6.32;100.00
23261;BME280;11799;47.740;-3.390;2022-12-18T09:32:25;101424.69;;;6.42;100.00
23261;BME280;11799;47.740;-3.390;2022-12-18T09:34:51;101422.44;;;6.51;100.00
23261;BME280;11799;47.740;-3.390;2022-12-18T09:37:17;101419.66;;;6.54;100.00
23261;BME280;11799;47.740;-3.390;2022-12-18T09:39:43;101418.81;;;6.54;100.00
23261;BME280;11799;47.740;-3.390;2022-12-18T09:42:20;101420.19;;;6.78;100.00
23261;BME280;11799;47.740;-3.390;2022-12-18T09:44:50;101421.72;;;6.82;100.00
23261;BME280;11799;47.740;-3.390;2022-12-18T09:47:24;101419.78;;;6.86;100.00
23261;BME280;11799;47.740;-3.390;2022-12-18T09:49:53;101416.47;;;6.98;100.00
23261;BME280;11799;47.740;-3.390;2022-12-18T09:52:27;101410.56;;;7.10;100.00
23261;BME280;11799;47.740;-3.390;2022-12-18T09:55:36;101411.00;;;7.18;100.00
23261;BME280;11799;47.740;-3.390;2022-12-18T10:00:41;101414.41;;;7.52;100.00
23261;BME280;11799;47.740;-3.390;2022-12-18T10:03:12;101421.19;;;7.56;100.00
23261;BME280;11799;47.740;-3.390;2022-12-18T10:05:43;101419.72;;;7.66;100.00
23261;BME280;11799;47.740;-3.390;2022-12-18T10:08:21;101414.31;;;7.69;100.00
23261;BME280;11799;47.740;-3.390;2022-12-18T10:10:52;101408.63;;;7.77;100.00
23261;BME280;11799;47.740;-3.390;2022-12-18T10:13:46;101408.28;;;7.83;100.00
23261;BME280;11799;47.740;-3.390;2022-12-18T10:19:56;101388.75;;;7.87;100.00
23261;BME280;11799;47.740;-3.390;2022-12-18T10:27:15;101381.88;;;8.14;100.00
23261;BME280;11799;47.740;-3.390;2022-12-18T10:29:42;101381.44;;;8.22;100.00
23261;BME280;11799;47.740;-3.390;2022-12-18T10:32:18;101367.25;;;8.24;100.00
23261;BME280;11799;47.740;-3.390;2022-12-18T10:34:51;101355.78;;;8.25;100.00
23261;BME280;11799;47.740;-3.390;2022-12-18T10:37:19;101345.44;;;8.22;100.00
23261;BME280;11799;47.740;-3.390;2022-12-18T10:39:46;101333.97;;;8.23;100.00
23261;BME280;11799;47.740;-3.390;2022-12-18T10:42:29;101323.72;;;8.19;100.00
23261;BME280;11799;47.740;-3.390;2022-12-18T10:45:21;101328.72;;;8.23;100.00
23261;BME280;11799;47.740;-3.390;2022-12-18T10:47:48;101328.81;;;8.22;100.00
23261;BME280;11799;47.740;-3.390;2022-12-18T10:50:26;101318.38;;;8.20;100.00
23261;BME280;11799;47.740;-3.390;2022-12-18T10:53:01;101330.41;;;8.24;100.00
23261;BME280;11799;47.740;-3.390;2022-12-18T10:55:34;101334.16;;;8.20;100.00
23261;BME280;11799;47.740;-3.390;2022-12-18T10:58:25;101337.53;;;8.22;100.00
23261;BME280;11799;47.740;-3.390;2022-12-18T11:01:15;101354.00;;;8.26;100.00
23261;BME280;11799;47.740;-3.390;2022-12-18T11:04:04;101380.41;;;8.24;100.00
23261;BME280;11799;47.740;-3.390;2022-12-18T11:06:27;101396.28;;;8.23;100.00
23261;BME280;11799;47.740;-3.390;2022-12-18T11:09:01;101419.69;;;8.27;100.00
23261;BME280;11799;47.740;-3.390;2022-12-18T11:11:28;101417.22;;;8.24;100.00
23261;BME280;11799;47.740;-3.390;2022-12-18T11:14:03;101402.03;;;8.29;100.00
23261;BME280;11799;47.740;-3.390;2022-12-18T11:16:33;101389.28;;;8.38;100.00
23261;BME280;11799;47.740;-3.390;2022-12-18T11:21:47;101367.66;;;8.33;100.00
23261;BME280;11799;47.740;-3.390;2022-12-18T11:26:46;101366.72;;;8.34;100.00
23261;BME280;11799;47.740;-3.390;2022-12-18T11:29:18;101357.06;;;8.34;100.00
23261;BME280;11799;47.740;-3.390;2022-12-18T11:31:43;101367.81;;;8.29;100.00
23261;BME280;11799;47.740;-3.390;2022-12-18T11:34:26;101366.75;;;8.48;100.00
23261;BME280;11799;47.740;-3.390;2022-12-18T11:36:53;101364.13;;;8.48;100.00
23261;BME280;11799;47.740;-3.390;2022-12-18T11:39:34;101366.47;;;8.52;100.00
23261;BME280;11799;47.740;-3.390;2022-12-18T11:42:09;101359.91;;;8.59;100.00
23261;BME280;11799;47.740;-3.390;2022-12-18T11:47:16;101358.84;;;8.76;100.00
23261;BME280;11799;47.740;-3.390;2022-12-18T11:49:49;101346.81;;;8.86;100.00
23261;BME280;11799;47.740;-3.390;2022-12-18T11:52:34;101347.75;;;9.00;100.00
23261;BME280;11799;47.740;-3.390;2022-12-18T11:55:11;101345.47;;;8.93;100.00
23261;BME280;11799;47.740;-3.390;2022-12-18T12:00:21;101338.69;;;9.04;100.00
23261;BME280;11799;47.740;-3.390;2022-12-18T12:11:56;101309.97;;;9.13;100.00
23261;BME280;11799;47.740;-3.390;2022-12-18T12:14:54;101307.16;;;9.16;100.00
23261;BME280;11799;47.740;-3.390;2022-12-18T12:23:05;101304.03;;;9.24;100.00
23261;BME280;11799;47.740;-3.390;2022-12-18T12:25:41;101296.84;;;9.26;100.00
23261;BME280;11799;47.740;-3.390;2022-12-18T12:39:01;101270.16;;;9.18;100.00
23261;BME280;11799;47.740;-3.390;2022-12-18T12:41:32;101268.47;;;9.17;100.00
23261;BME280;11799;47.740;-3.390;2022-12-18T12:44:28;101258.69;;;9.19;100.00
23261;BME280;11799;47.740;-3.390;2022-12-18T12:47:00;101263.94;;;9.19;100.00
23261;BME280;11799;47.740;-3.390;2022-12-18T12:49:31;101265.84;;;9.17;100.00
23261;BME280;11799;47.740;-3.390;2022-12-18T12:52:32;101262.56;;;9.13;100.00
23261;BME280;11799;47.740;-3.390;2022-12-18T12:55:02;101255.00;;;9.21;100.00
23261;BME280;11799;47.740;-3.390;2022-12-18T12:57:41;101257.09;;;9.29;100.00
23261;BME280;11799;47.740;-3.390;2022-12-18T13:00:19;101261.13;;;9.22;100.00
23261;BME280;11799;47.740;-3.390;2022-12-18T13:08:31;101237.72;;;9.30;100.00
23261;BME280;11799;47.740;-3.390;2022-12-18T13:10:58;101238.34;;;9.34;100.00
23261;BME280;11799;47.740;-3.390;2022-12-18T13:13:56;101243.38;;;9.51;100.00
23261;BME280;11799;47.740;-3.390;2022-12-18T13:16:23;101246.13;;;9.62;100.00
23261;BME280;11799;47.740;-3.390;2022-12-18T13:18:51;101240.56;;;9.67;100.00
23261;BME280;11799;47.740;-3.390;2022-12-18T13:21:25;101231.06;;;9.77;100.00
23261;BME280;11799;47.740;-3.390;2022-12-18T13:23:53;101216.94;;;9.78;100.00
23261;BME280;11799;47.740;-3.390;2022-12-18T13:31:14;101204.88;;;9.99;100.00
23261;BME280;11799;47.740;-3.390;2022-12-18T13:34:25;101193.50;;;9.99;100.00
23261;BME280;11799;47.740;-3.390;2022-12-18T13:36:52;101189.91;;;10.00;100.00
23261;BME280;11799;47.740;-3.390;2022-12-18T13:41:54;101195.28;;;9.98;100.00
23261;BME280;11799;47.740;-3.390;2022-12-18T13:44:55;101188.09;;;10.00;100.00
23261;BME280;11799;47.740;-3.390;2022-12-18T13:49:52;101206.47;;;10.02;100.00
23261;BME280;11799;47.740;-3.390;2022-12-18T13:52:21;101180.81;;;10.04;100.00
23261;BME280;11799;47.740;-3.390;2022-12-18T13:54:51;101181.56;;;10.06;100.00
23261;BME280;11799;47.740;-3.390;2022-12-18T13:57:28;101175.88;;;9.99;100.00
23261;BME280;11799;47.740;-3.390;2022-12-18T13:59:54;101181.13;;;9.99;100.00
23261;BME280;11799;47.740;-3.390;2022-12-18T14:02:23;101167.94;;;9.99;100.00
23261;BME280;11799;47.740;-3.390;2022-12-18T14:04:50;101174.28;;;9.97;100.00
23261;BME280;11799;47.740;-3.390;2022-12-18T14:07:21;101163.72;;;9.97;100.00
23261;BME280;11799;47.740;-3.390;2022-12-18T14:10:00;101168.06;;;9.98;100.00
23261;BME280;11799;47.740;-3.390;2022-12-18T14:12:31;101174.06;;;10.00;100.00
23261;BME280;11799;47.740;-3.390;2022-12-18T14:15:39;101169.84;;;9.97;100.00
23261;BME280;11799;47.740;-3.390;2022-12-18T14:21:03;101174.19;;;9.98;100.00
23261;BME280;11799;47.740;-3.390;2022-12-18T14:23:41;101162.56;;;10.01;100.00
23261;BME280;11799;47.740;-3.390;2022-12-18T14:26:42;101158.34;;;9.98;100.00
23261;BME280;11799;47.740;-3.390;2022-12-18T14:29:25;101162.34;;;10.04;100.00
23261;BME280;11799;47.740;-3.390;2022-12-18T14:32:05;101137.88;;;10.02;100.00
23261;BME280;11799;47.740;-3.390;2022-12-18T14:34:31;101141.25;;;10.04;100.00